sensor_id;sensor_type;location;lat;lon;timestamp;pressure;altitude;pressure_sealevel;temperature;humidity
64844;BME280;51310;52.198;5.422;2023-02-20T00:01:22;102273.91;;;4.52;100.00
64844;BME280;51310;52.198;5.422;2023-02-20T00:03:48;102252.59;;;4.51;100.00
64844;BME280;51310;52.198;5.422;2023-02-20T00:06:13;102257.47;;;4.44;100.00
64844;BME280;51310;52.198;5.422;2023-02-20T00:08:39;102253.63;;;4.35;100.00
64844;BME280;51310;52.198;5.422;2023-02-20T00:11:06;102264.06;;;4.31;100.00
64844;BME280;51310;52.198;5.422;2023-02-20T00:13:31;102256.19;;;4.29;100.00
64844;BME280;51310;52.198;5.422;2023-02-20T00:15:57;102255.25;;;4.35;100.00
64844;BME280;51310;52.198;5.422;2023-02-20T00:18:23;102264.06;;;4.37;100.00
64844;BME280;51310;52.198;5.422;2023-02-20T00:20:49;102243.84;;;4.38;100.00
64844;BME280;51310;52.198;5.422;2023-02-20T00:23:15;102236.47;;;4.34;100.00
64844;BME280;51310;52.198;5.422;2023-02-20T00:25:40;102231.84;;;4.37;100.00
64844;BME280;51310;52.198;5.422;2023-02-20T00:28:06;102235.78;;;4.35;100.00
64844;BME280;51310;52.198;5.422;2023-02-20T00:30:32;102228.63;;;4.32;100.00
64844;BME280;51310;52.198;5.422;2023-02-20T00:32:58;102223.28;;;4.37;100.00
64844;BME280;51310;52.198;5.422;2023-02-20T00:35:25;102212.34;;;4.38;100.00
64844;BME280;51310;52.198;5.422;2023-02-20T00:37:53;102219.56;;;4.35;100.00
64844;BME280;51310;52.198;5.422;2023-02-20T00:40:21;102218.84;;;4.36;100.00
64844;BME280;51310;52.198;5.422;2023-02-20T00:42:47;102210.59;;;4.25;100.00
64844;BME280;51310;52.198;5.422;2023-02-20T00:45:15;102211.56;;;4.20;100.00
64844;BME280;51310;52.198;5.422;2023-02-20T00:47:41;102206.97;;;4.18;100.00
64844;BME280;51310;52.198;5.422;2023-02-20T00:50:08;102192.31;;;4.22;100.00
64844;BME280;51310;52.198;5.422;2023-02-20T00:52:34;102199.06;;;4.22;100.00
64844;BME280;51310;52.198;5.422;2023-02-20T00:55:01;102193.56;;;4.13;100.00
64844;BME280;51310;52.198;5.422;2023-02-20T00:57:27;102186.84;;;4.14;100.00
64844;BME280;51310;52.198;5.422;2023-02-20T00:59:52;102188.66;;;4.15;100.00
64844;BME280;51310;52.198;5.422;2023-02-20T01:02:18;102179.41;;;4.15;100.00
64844;BME280;51310;52.198;5.422;2023-02-20T01:04:44;102171.31;;;4.12;100.00
64844;BME280;51310;52.198;5.422;2023-02-20T01:07:10;102168.13;;;4.07;100.00
64844;BME280;51310;52.198;5.422;2023-02-20T01:09:35;102162.50;;;4.16;100.00
64844;BME280;51310;52.198;5.422;2023-02-20T01:12:01;102157.44;;;4.10;100.00
64844;BME280;51310;52.198;5.422;2023-02-20T01:14:27;102131.78;;;4.03;100.00
64844;BME280;51310;52.198;5.422;2023-02-20T01:16:53;102122.34;;;3.96;100.00
64844;BME280;51310;52.198;5.422;2023-02-20T01:19:21;102119.84;;;3.90;100.00
64844;BME280;51310;52.198;5.422;2023-02-20T01:21:48;102126.31;;;3.94;100.00
64844;BME280;51310;52.198;5.422;2023-02-20T01:24:15;102118.03;;;3.84;100.00
64844;BME280;51310;52.198;5.422;2023-02-20T01:26:43;102133.56;;;3.85;100.00
64844;BME280;51310;52.198;5.422;2023-02-20T01:29:09;102138.91;;;3.81;100.00
64844;BME280;51310;52.198;5.422;2023-02-20T01:31:35;102127.56;;;3.79;100.00
64844;BME280;51310;52.198;5.422;2023-02-20T01:34:02;102119.91;;;3.85;100.00
64844;BME280;51310;52.198;5.422;2023-02-20T01:36:28;102139.31;;;3.90;100.00
64844;BME280;51310;52.198;5.422;2023-02-20T01:38:53;102129.09;;;3.96;100.00
64844;BME280;51310;52.198;5.422;2023-02-20T01:41:19;102118.63;;;4.00;100.00
64844;BME280;51310;52.198;5.422;2023-02-20T01:43:45;102123.94;;;4.01;100.00
64844;BME280;51310;52.198;5.422;2023-02-20T01:46:47;102118.06;;;4.08;100.00
64844;BME280;51310;52.198;5.422;2023-02-20T01:49:19;102117.56;;;4.16;100.00
64844;BME280;51310;52.198;5.422;2023-02-20T01:51:54;102127.06;;;4.17;100.00
64844;BME280;51310;52.198;5.422;2023-02-20T01:54:24;102129.38;;;4.16;100.00
64844;BME280;51310;52.198;5.422;2023-02-20T01:56:53;102122.91;;;4.12;100.00
64844;BME280;51310;52.198;5.422;2023-02-20T01:59:24;102130.34;;;4.10;100.00
64844;BME280;51310;52.198;5.422;2023-02-20T02:01:51;102119.22;;;4.10;100.00
64844;BME280;51310;52.198;5.422;2023-02-20T02:04:17;102103.91;;;4.16;100.00
64844;BME280;51310;52.198;5.422;2023-02-20T02:06:48;102095.59;;;4.11;100.00
64844;BME280;51310;52.198;5.422;2023-02-20T02:12:12;102087.06;;;4.10;100.00
64844;BME280;51310;52.198;5.422;2023-02-20T02:14:37;102081.75;;;4.03;100.00
64844;BME280;51310;52.198;5.422;2023-02-20T02:17:23;102084.00;;;4.13;100.00
64844;BME280;51310;52.198;5.422;2023-02-20T02:25:55;102072.44;;;4.09;100.00
64844;BME280;51310;52.198;5.422;2023-02-20T02:37:23;102060.53;;;4.21;100.00
64844;BME280;51310;52.198;5.422;2023-02-20T02:46:05;102049.03;;;4.55;100.00
64844;BME280;51310;52.198;5.422;2023-02-20T02:49:00;102046.31;;;4.71;100.00
64844;BME280;51310;52.198;5.422;2023-02-20T02:51:36;102046.56;;;4.86;100.00
64844;BME280;51310;52.198;5.422;2023-02-20T02:54:17;102048.53;;;4.94;100.00
64844;BME280;51310;52.198;5.422;2023-02-20T02:56:51;102050.59;;;4.97;100.00
64844;BME280;51310;52.198;5.422;2023-02-20T02:59:26;102045.72;;;4.98;100.00
64844;BME280;51310;52.198;5.422;2023-02-20T03:02:01;102042.59;;;5.06;100.00
64844;BME280;51310;52.198;5.422;2023-02-20T03:04:30;102044.13;;;5.11;100.00
64844;BME280;51310;52.198;5.422;2023-02-20T03:07:03;102046.63;;;5.17;100.00
64844;BME280;51310;52.198;5.422;2023-02-20T03:09:36;102056.53;;;5.21;100.00
64844;BME280;51310;52.198;5.422;2023-02-20T03:12:06;102044.69;;;5.22;100.00
64844;BME280;51310;52.198;5.422;2023-02-20T03:15:04;102037.88;;;5.28;100.00
64844;BME280;51310;52.198;5.422;2023-02-20T03:20:44;102034.81;;;5.30;100.00
64844;BME280;51310;52.198;5.422;2023-02-20T03:23:17;102028.06;;;5.31;100.00
64844;BME280;51310;52.198;5.422;2023-02-20T03:25:55;102021.38;;;5.31;100.00
64844;BME280;51310;52.198;5.422;2023-02-20T03:28:38;102018.91;;;5.39;100.00
64844;BME280;51310;52.198;5.422;2023-02-20T03:31:27;102020.34;;;5.37;100.00
64844;BME280;51310;52.198;5.422;2023-02-20T03:34:21;102016.38;;;5.39;100.00
64844;BME280;51310;52.198;5.422;2023-02-20T03:37:15;102019.31;;;5.42;100.00
64844;BME280;51310;52.198;5.422;2023-02-20T03:40:08;102015.34;;;5.44;100.00
64844;BME280;51310;52.198;5.422;2023-02-20T03:43:01;102019.75;;;5.45;100.00
64844;BME280;51310;52.198;5.422;2023-02-20T03:45:48;102006.69;;;5.49;100.00
64844;BME280;51310;52.198;5.422;2023-02-20T03:48:28;102013.41;;;5.48;100.00
64844;BME280;51310;52.198;5.422;2023-02-20T03:50:55;102009.94;;;5.48;100.00
64844;BME280;51310;52.198;5.422;2023-02-20T03:53:22;102007.09;;;5.52;100.00
64844;BME280;51310;52.198;5.422;2023-02-20T03:55:50;101998.00;;;5.54;100.00
64844;BME280;51310;52.198;5.422;2023-02-20T03:58:20;102001.78;;;5.50;100.00
64844;BME280;51310;52.198;5.422;2023-02-20T04:00:52;101999.66;;;5.53;100.00
64844;BME280;51310;52.198;5.422;2023-02-20T04:03:26;101999.66;;;5.53;100.00
64844;BME280;51310;52.198;5.422;2023-02-20T04:05:56;101992.09;;;5.61;100.00
64844;BME280;51310;52.198;5.422;2023-02-20T04:08:29;101994.88;;;5.62;100.00
64844;BME280;51310;52.198;5.422;2023-02-20T04:11:10;101991.41;;;5.62;100.00
64844;BME280;51310;52.198;5.422;2023-02-20T04:13:39;101999.06;;;5.62;100.00
64844;BME280;51310;52.198;5.422;2023-02-20T04:16:07;101994.66;;;5.61;100.00
64844;BME280;51310;52.198;5.422;2023-02-20T04:18:33;102005.69;;;5.67;100.00
64844;BME280;51310;52.198;5.422;2023-02-20T04:21:04;101999.78;;;5.73;100.00
64844;BME280;51310;52.198;5.422;2023-02-20T04:23:37;101997.72;;;5.71;100.00
64844;BME280;51310;52.198;5.422;2023-02-20T04:26:15;101987.00;;;5.73;100.00
64844;BME280;51310;52.198;5.422;2023-02-20T04:28:42;101989.25;;;5.78;100.00
64844;BME280;51310;52.198;5.422;2023-02-20T04:31:12;101986.19;;;5.80;100.00
64844;BME280;51310;52.198;5.422;2023-02-20T04:33:39;101981.28;;;5.82;100.00
64844;BME280;51310;52.198;5.422;2023-02-20T04:36:06;101983.25;;;5.77;100.00
64844;BME280;51310;52.198;5.422;2023-02-20T04:38:31;101978.94;;;5.83;100.00
64844;BME280;51310;52.198;5.422;2023-02-20T04:40:57;101983.13;;;5.83;100.00
64844;BME280;51310;52.198;5.422;2023-02-20T04:43:23;101984.06;;;5.83;100.00
64844;BME280;51310;52.198;5.422;2023-02-20T04:45:48;101979.34;;;5.86;100.00
64844;BME280;51310;52.198;5.422;2023-02-20T04:48:14;101979.75;;;5.89;100.00
64844;BME280;51310;52.198;5.422;2023-02-20T04:50:40;101987.22;;;5.88;100.00
64844;BME280;51310;52.198;5.422;2023-02-20T04:53:06;101994.78;;;5.93;100.00
64844;BME280;51310;52.198;5.422;2023-02-20T04:55:32;101980.69;;;5.90;100.00
64844;BME280;51310;52.198;5.422;2023-02-20T04:57:57;101982.72;;;5.92;100.00
64844;BME280;51310;52.198;5.422;2023-02-20T05:00:25;101988.53;;;5.91;100.00
64844;BME280;51310;52.198;5.422;2023-02-20T05:02:51;101981.59;;;5.90;100.00
64844;BME280;51310;52.198;5.422;2023-02-20T05:05:24;101989.47;;;5.92;100.00
64844;BME280;51310;52.198;5.422;2023-02-20T05:07:59;101973.94;;;5.90;100.00
64844;BME280;51310;52.198;5.422;2023-02-20T05:10:27;101969.22;;;5.93;100.00
64844;BME280;51310;52.198;5.422;2023-02-20T05:12:53;101978.03;;;5.95;100.00
64844;BME280;51310;52.198;5.422;2023-02-20T05:15:21;101981.09;;;5.93;100.00
64844;BME280;51310;52.198;5.422;2023-02-20T05:17:47;101978.03;;;5.95;100.00
64844;BME280;51310;52.198;5.422;2023-02-20T05:20:15;101974.28;;;5.99;100.00
64844;BME280;51310;52.198;5.422;2023-02-20T05:22:41;101966.38;;;5.98;100.00
64844;BME280;51310;52.198;5.422;2023-02-20T05:25:07;101973.75;;;6.02;100.00
64844;BME280;51310;52.198;5.422;2023-02-20T05:27:33;101983.28;;;6.03;100.00
64844;BME280;51310;52.198;5.422;2023-02-20T05:30:00;101964.66;;;6.04;100.00
64844;BME280;51310;52.198;5.422;2023-02-20T05:32:28;101974.88;;;6.04;100.00
64844;BME280;51310;52.198;5.422;2023-02-20T05:34:55;101982.03;;;6.06;100.00
64844;BME280;51310;52.198;5.422;2023-02-20T05:37:23;101974.25;;;6.12;100.00
64844;BME280;51310;52.198;5.422;2023-02-20T05:39:49;101970.78;;;6.11;100.00
64844;BME280;51310;52.198;5.422;2023-02-20T05:42:16;101966.47;;;6.18;100.00
64844;BME280;51310;52.198;5.422;2023-02-20T05:44:42;101967.41;;;6.18;100.00
64844;BME280;51310;52.198;5.422;2023-02-20T05:47:08;101974.34;;;6.19;100.00
64844;BME280;51310;52.198;5.422;2023-02-20T05:49:35;101961.56;;;6.19;100.00
64844;BME280;51310;52.198;5.422;2023-02-20T05:52:04;101961.25;;;6.23;100.00
64844;BME280;51310;52.198;5.422;2023-02-20T05:54:37;101957.06;;;6.24;100.00
64844;BME280;51310;52.198;5.422;2023-02-20T05:57:04;101966.75;;;6.26;100.00
64844;BME280;51310;52.198;5.422;2023-02-20T05:59:30;101965.84;;;6.26;100.00
64844;BME280;51310;52.198;5.422;2023-02-20T06:01:58;101965.66;;;6.24;100.00
64844;BME280;51310;52.198;5.422;2023-02-20T06:04:24;101962.59;;;6.27;100.00
64844;BME280;51310;52.198;5.422;2023-02-20T06:06:50;101946.81;;;6.24;100.00
64844;BME280;51310;52.198;5.422;2023-02-20T06:09:16;101954.41;;;6.29;100.00
64844;BME280;51310;52.198;5.422;2023-02-20T06:11:53;101958.06;;;6.31;100.00
64844;BME280;51310;52.198;5.422;2023-02-20T06:14:21;101955.31;;;6.30;100.00
64844;BME280;51310;52.198;5.422;2023-02-20T06:16:47;101961.84;;;6.28;100.00
64844;BME280;51310;52.198;5.422;2023-02-20T06:19:22;101966.06;;;6.27;100.00
64844;BME280;51310;52.198;5.422;2023-02-20T06:21:50;101957.84;;;6.30;100.00
64844;BME280;51310;52.198;5.422;2023-02-20T06:24:18;101962.97;;;6.30;100.00
64844;BME280;51310;52.198;5.422;2023-02-20T06:26:45;101965.44;;;6.35;100.00
64844;BME280;51310;52.198;5.422;2023-02-20T06:29:13;101957.03;;;6.36;100.00
64844;BME280;51310;52.198;5.422;2023-02-20T06:31:39;101965.59;;;6.37;100.00
64844;BME280;51310;52.198;5.422;2023-02-20T06:34:07;101962.34;;;6.38;100.00
64844;BME280;51310;52.198;5.422;2023-02-20T06:36:37;101964.00;;;6.38;100.00
64844;BME280;51310;52.198;5.422;2023-02-20T06:39:05;101958.66;;;6.36;100.00
64844;BME280;51310;52.198;5.422;2023-02-20T06:41:31;101968.69;;;6.34;100.00
64844;BME280;51310;52.198;5.422;2023-02-20T06:43:57;101963.03;;;6.37;100.00
64844;BME280;51310;52.198;5.422;2023-02-20T06:46:24;101956.50;;;6.39;100.00
64844;BME280;51310;52.198;5.422;2023-02-20T06:48:56;101958.16;;;6.39;100.00
64844;BME280;51310;52.198;5.422;2023-02-20T06:51:31;101951.38;;;6.39;100.00
64844;BME280;51310;52.198;5.422;2023-02-20T06:53:59;101947.91;;;6.39;100.00
64844;BME280;51310;52.198;5.422;2023-02-20T06:56:30;101957.03;;;6.36;100.00
64844;BME280;51310;52.198;5.422;2023-02-20T06:58:57;101955.91;;;6.34;100.00
64844;BME280;51310;52.198;5.422;2023-02-20T07:01:27;101958.66;;;6.36;100.00
64844;BME280;51310;52.198;5.422;2023-02-20T07:03:56;101960.69;;;6.39;100.00
64844;BME280;51310;52.198;5.422;2023-02-20T07:06:24;101966.56;;;6.38;100.00
64844;BME280;51310;52.198;5.422;2023-02-20T07:08:51;101963.69;;;6.42;100.00
64844;BME280;51310;52.198;5.422;2023-02-20T07:11:20;101966.03;;;6.40;100.00
64844;BME280;51310;52.198;5.422;2023-02-20T07:13:46;101960.91;;;6.40;100.00
64844;BME280;51310;52.198;5.422;2023-02-20T07:16:12;101964.81;;;6.44;100.00
64844;BME280;51310;52.198;5.422;2023-02-20T07:18:38;101975.53;;;6.41;100.00
64844;BME280;51310;52.198;5.422;2023-02-20T07:21:04;101971.22;;;6.47;100.00
64844;BME280;51310;52.198;5.422;2023-02-20T07:23:30;101974.19;;;6.50;100.00
64844;BME280;51310;52.198;5.422;2023-02-20T07:25:56;101987.16;;;6.52;100.00
64844;BME280;51310;52.198;5.422;2023-02-20T07:28:21;101985.03;;;6.55;100.00
64844;BME280;51310;52.198;5.422;2023-02-20T07:30:48;101982.47;;;6.55;100.00
64844;BME280;51310;52.198;5.422;2023-02-20T07:33:15;101981.56;;;6.54;100.00
64844;BME280;51310;52.198;5.422;2023-02-20T07:35:41;101971.50;;;6.56;100.00
64844;BME280;51310;52.198;5.422;2023-02-20T07:38:07;101975.19;;;6.58;100.00
64844;BME280;51310;52.198;5.422;2023-02-20T07:40:33;101991.84;;;6.62;100.00
64844;BME280;51310;52.198;5.422;2023-02-20T07:42:58;101979.13;;;6.69;100.00
64844;BME280;51310;52.198;5.422;2023-02-20T07:45:24;101993.78;;;6.70;100.00
64844;BME280;51310;52.198;5.422;2023-02-20T07:47:50;101977.06;;;6.79;100.00
64844;BME280;51310;52.198;5.422;2023-02-20T07:50:17;101983.81;;;6.78;100.00
64844;BME280;51310;52.198;5.422;2023-02-20T07:52:44;101978.03;;;6.87;100.00
64844;BME280;51310;52.198;5.422;2023-02-20T07:55:14;101968.16;;;6.83;100.00
64844;BME280;51310;52.198;5.422;2023-02-20T07:57:40;101980.00;;;6.82;100.00
64844;BME280;51310;52.198;5.422;2023-02-20T08:00:07;101979.69;;;6.86;100.00
64844;BME280;51310;52.198;5.422;2023-02-20T08:02:33;101975.25;;;6.98;100.00
64844;BME280;51310;52.198;5.422;2023-02-20T08:04:59;101970.28;;;6.99;100.00
64844;BME280;51310;52.198;5.422;2023-02-20T08:07:25;101960.53;;;7.10;100.00
64844;BME280;51310;52.198;5.422;2023-02-20T08:09:51;101964.34;;;7.06;100.00
64844;BME280;51310;52.198;5.422;2023-02-20T08:12:17;101960.94;;;7.13;100.00
64844;BME280;51310;52.198;5.422;2023-02-20T08:14:42;101976.69;;;7.16;100.00
64844;BME280;51310;52.198;5.422;2023-02-20T08:17:08;101973.75;;;7.13;100.00
64844;BME280;51310;52.198;5.422;2023-02-20T08:19:33;101967.34;;;7.16;100.00
64844;BME280;51310;52.198;5.422;2023-02-20T08:21:59;101972.88;;;7.19;100.00
64844;BME280;51310;52.198;5.422;2023-02-20T08:24:25;101979.25;;;7.16;100.00
64844;BME280;51310;52.198;5.422;2023-02-20T08:26:51;101989.28;;;7.14;100.00
64844;BME280;51310;52.198;5.422;2023-02-20T08:29:16;101972.78;;;7.12;100.00
64844;BME280;51310;52.198;5.422;2023-02-20T08:31:42;101986.28;;;7.24;100.00
64844;BME280;51310;52.198;5.422;2023-02-20T08:34:08;101976.56;;;7.22;100.00
64844;BME280;51310;52.198;5.422;2023-02-20T08:36:34;101971.81;;;7.25;100.00
64844;BME280;51310;52.198;5.422;2023-02-20T08:39:00;101976.03;;;7.24;100.00
64844;BME280;51310;52.198;5.422;2023-02-20T08:41:28;101982.38;;;7.21;100.00
64844;BME280;51310;52.198;5.422;2023-02-20T08:43:54;101976.16;;;7.18;100.00
64844;BME280;51310;52.198;5.422;2023-02-20T08:46:19;101984.81;;;7.26;100.00
64844;BME280;51310;52.198;5.422;2023-02-20T08:48:45;101979.97;;;7.35;100.00
64844;BME280;51310;52.198;5.422;2023-02-20T08:51:11;101969.84;;;7.29;100.00
64844;BME280;51310;52.198;5.422;2023-02-20T08:53:38;101974.25;;;7.30;100.00
64844;BME280;51310;52.198;5.422;2023-02-20T08:56:07;101989.41;;;7.29;100.00
64844;BME280;51310;52.198;5.422;2023-02-20T08:58:34;101976.28;;;7.33;100.00
64844;BME280;51310;52.198;5.422;2023-02-20T09:01:00;101980.63;;;7.27;100.00
64844;BME280;51310;52.198;5.422;2023-02-20T09:03:25;101978.84;;;7.33;100.00
64844;BME280;51310;52.198;5.422;2023-02-20T09:05:52;101979.06;;;7.34;100.00
64844;BME280;51310;52.198;5.422;2023-02-20T09:08:18;101987.06;;;7.30;100.00
64844;BME280;51310;52.198;5.422;2023-02-20T09:10:44;101986.84;;;7.29;100.00
64844;BME280;51310;52.198;5.422;2023-02-20T09:13:10;101978.25;;;7.28;100.00
64844;BME280;51310;52.198;5.422;2023-02-20T09:15:36;101980.09;;;7.29;100.00
64844;BME280;51310;52.198;5.422;2023-02-20T09:18:06;101975.50;;;7.27;100.00
64844;BME280;51310;52.198;5.422;2023-02-20T09:20:34;101969.84;;;7.29;100.00
64844;BME280;51310;52.198;5.422;2023-02-20T09:23:01;101958.56;;;7.34;100.00
64844;BME280;51310;52.198;5.422;2023-02-20T09:25:27;101955.63;;;7.38;100.00
64844;BME280;51310;52.198;5.422;2023-02-20T09:27:53;101963.56;;;7.47;100.00
64844;BME280;51310;52.198;5.422;2023-02-20T09:30:20;101951.94;;;7.56;100.00
64844;BME280;51310;52.198;5.422;2023-02-20T09:32:47;101957.97;;;7.57;100.00
64844;BME280;51310;52.198;5.422;2023-02-20T09:35:23;101945.53;;;7.60;100.00
64844;BME280;51310;52.198;5.422;2023-02-20T09:37:49;101946.81;;;7.56;100.00
64844;BME280;51310;52.198;5.422;2023-02-20T09:40:16;101949.03;;;7.60;100.00
64844;BME280;51310;52.198;5.422;2023-02-20T09:46:13;101947.19;;;7.59;100.00
64844;BME280;51310;52.198;5.422;2023-02-20T09:51:30;101961.53;;;7.65;100.00
64844;BME280;51310;52.198;5.422;2023-02-20T09:56:57;101959.66;;;7.64;100.00
64844;BME280;51310;52.198;5.422;2023-02-20T09:59:33;101964.81;;;7.71;100.00
64844;BME280;51310;52.198;5.422;2023-02-20T10:05:00;101967.03;;;7.68;100.00
64844;BME280;51310;52.198;5.422;2023-02-20T10:07:36;101975.06;;;7.71;100.00
64844;BME280;51310;52.198;5.422;2023-02-20T10:10:20;101965.22;;;7.74;100.00
64844;BME280;51310;52.198;5.422;2023-02-20T10:13:07;101961.69;;;7.93;100.00
64844;BME280;51310;52.198;5.422;2023-02-20T10:18:37;101973.16;;;7.83;100.00
64844;BME280;51310;52.198;5.422;2023-02-20T10:24:21;101958.91;;;7.85;100.00
64844;BME280;51310;52.198;5.422;2023-02-20T10:26:58;101940.44;;;7.94;100.00
64844;BME280;51310;52.198;5.422;2023-02-20T10:29:39;101930.03;;;8.00;100.00
64844;BME280;51310;52.198;5.422;2023-02-20T10:32:09;101945.63;;;8.01;100.00
64844;BME280;51310;52.198;5.422;2023-02-20T10:34:52;101969.41;;;8.00;100.00
64844;BME280;51310;52.198;5.422;2023-02-20T10:37:24;101955.31;;;7.97;100.00
64844;BME280;51310;52.198;5.422;2023-02-20T10:40:05;101939.03;;;8.04;100.00
64844;BME280;51310;52.198;5.422;2023-02-20T10:45:29;101936.69;;;8.12;100.00
64844;BME280;51310;52.198;5.422;2023-02-20T10:48:08;101932.84;;;8.16;100.00
64844;BME280;51310;52.198;5.422;2023-02-20T10:56:06;101934.91;;;8.26;100.00
64844;BME280;51310;52.198;5.422;2023-02-20T11:01:21;101938.31;;;8.12;100.00
64844;BME280;51310;52.198;5.422;2023-02-20T11:04:02;101950.97;;;8.10;100.00
64844;BME280;51310;52.198;5.422;2023-02-20T11:06:37;101939.06;;;8.11;100.00
64844;BME280;51310;52.198;5.422;2023-02-20T11:09:04;101934.31;;;8.14;100.00
64844;BME280;51310;52.198;5.422;2023-02-20T11:11:42;101916.34;;;8.07;100.00
64844;BME280;51310;52.198;5.422;2023-02-20T11:17:16;101925.34;;;8.10;100.00
64844;BME280;51310;52.198;5.422;2023-02-20T11:19:45;101923.13;;;8.13;100.00
64844;BME280;51310;52.198;5.422;2023-02-20T11:22:14;101927.00;;;8.17;100.00
64844;BME280;51310;52.198;5.422;2023-02-20T11:24:43;101939.47;;;8.21;100.00
64844;BME280;51310;52.198;5.422;2023-02-20T11:29:59;101922.41;;;8.14;100.00
64844;BME280;51310;52.198;5.422;2023-02-20T11:32:39;101934.16;;;8.19;100.00
64844;BME280;51310;52.198;5.422;2023-02-20T11:35:22;101911.78;;;8.18;100.00
64844;BME280;51310;52.198;5.422;2023-02-20T11:38:15;101915.09;;;8.17;100.00
64844;BME280;51310;52.198;5.422;2023-02-20T11:40:37;101924.59;;;8.18;100.00
64844;BME280;51310;52.198;5.422;2023-02-20T11:45:39;101933.94;;;8.11;100.00
64844;BME280;51310;52.198;5.422;2023-02-20T11:48:15;101931.91;;;8.08;100.00
64844;BME280;51310;52.198;5.422;2023-02-20T11:50:46;101922.59;;;8.16;100.00
64844;BME280;51310;52.198;5.422;2023-02-20T11:55:48;101922.59;;;8.16;100.00
64844;BME280;51310;52.198;5.422;2023-02-20T11:58:26;101935.06;;;8.20;100.00
64844;BME280;51310;52.198;5.422;2023-02-20T12:00:54;101944.56;;;8.14;100.00
64844;BME280;51310;52.198;5.422;2023-02-20T12:03:27;101926.38;;;8.05;100.00
64844;BME280;51310;52.198;5.422;2023-02-20T12:05:54;101929.34;;;8.08;100.00
64844;BME280;51310;52.198;5.422;2023-02-20T12:08:46;101935.97;;;8.13;100.00
64844;BME280;51310;52.198;5.422;2023-02-20T12:11:19;101941.63;;;8.11;100.00
64844;BME280;51310;52.198;5.422;2023-02-20T12:13:48;101933.78;;;8.16;100.00
64844;BME280;51310;52.198;5.422;2023-02-20T12:19:53;101918.34;;;8.09;100.00
64844;BME280;51310;52.198;5.422;2023-02-20T12:22:38;101910.72;;;8.16;100.00
64844;BME280;51310;52.198;5.422;2023-02-20T12:25:41;101912.34;;;8.16;100.00
64844;BME280;51310;52.198;5.422;2023-02-20T12:28:21;101921.53;;;8.21;100.00
64844;BME280;51310;52.198;5.422;2023-02-20T12:31:04;101914.19;;;8.24;100.00
64844;BME280;51310;52.198;5.422;2023-02-20T12:34:31;101918.97;;;8.21;100.00
64844;BME280;51310;52.198;5.422;2023-02-20T12:37:21;101907.41;;;8.25;100.00
64844;BME280;51310;52.198;5.422;2023-02-20T12:40:29;101915.66;;;8.29;100.00
64844;BME280;51310;52.198;5.422;2023-02-20T12:46:06;101900.13;;;8.35;100.00
64844;BME280;51310;52.198;5.422;2023-02-20T12:51:30;101914.81;;;8.36;100.00
64844;BME280;51310;52.198;5.422;2023-02-20T12:54:18;101912.59;;;8.39;100.00
64844;BME280;51310;52.198;5.422;2023-02-20T12:56:52;101906.56;;;8.38;100.00
64844;BME280;51310;52.198;5.422;2023-02-20T13:00:01;101887.38;;;8.49;100.00
64844;BME280;51310;52.198;5.422;2023-02-20T13:02:45;101883.00;;;8.55;100.00
64844;BME280;51310;52.198;5.422;2023-02-20T13:05:21;101885.75;;;8.64;100.00
64844;BME280;51310;52.198;5.422;2023-02-20T13:08:44;101887.78;;;8.67;100.00
64844;BME280;51310;52.198;5.422;2023-02-20T13:11:23;101887.78;;;8.74;100.00
64844;BME280;51310;52.198;5.422;2023-02-20T13:20:23;101873.31;;;8.89;100.00
64844;BME280;51310;52.198;5.422;2023-02-20T13:22:29;101862.69;;;8.86;100.00
64844;BME280;51310;52.198;5.422;2023-02-20T13:25:35;101872.56;;;8.75;100.00
64844;BME280;51310;52.198;5.422;2023-02-20T13:28:25;101871.47;;;8.73;100.00
64844;BME280;51310;52.198;5.422;2023-02-20T13:31:12;101872.22;;;8.79;100.00
64844;BME280;51310;52.198;5.422;2023-02-20T13:34:26;101879.53;;;8.83;100.00
64844;BME280;51310;52.198;5.422;2023-02-20T13:47:44;101855.16;;;8.80;100.00
64844;BME280;51310;52.198;5.422;2023-02-20T13:52:37;101842.50;;;8.67;100.00
64844;BME280;51310;52.198;5.422;2023-02-20T13:57:50;101832.56;;;8.70;100.00
64844;BME280;51310;52.198;5.422;2023-02-20T14:00:49;101839.00;;;8.67;100.00
64844;BME280;51310;52.198;5.422;2023-02-20T14:03:29;101841.75;;;8.61;100.00
64844;BME280;51310;52.198;5.422;2023-02-20T14:06:14;101840.28;;;8.63;100.00
64844;BME280;51310;52.198;5.422;2023-02-20T14:08:46;101830.41;;;8.66;100.00
64844;BME280;51310;52.198;5.422;2023-02-20T14:11:27;101833.13;;;8.68;100.00
64844;BME280;51310;52.198;5.422;2023-02-20T14:13:56;101836.81;;;8.62;100.00
64844;BME280;51310;52.198;5.422;2023-02-20T14:18:49;101813.88;;;8.50;100.00
64844;BME280;51310;52.198;5.422;2023-02-20T14:21:21;101822.69;;;8.59;100.00
64844;BME280;51310;52.198;5.422;2023-02-20T14:23:49;101808.94;;;8.51;100.00
64844;BME280;51310;52.198;5.422;2023-02-20T14:26:30;101811.31;;;8.50;100.00
64844;BME280;51310;52.198;5.422;2023-02-20T14:28:59;101823.03;;;8.55;100.00
64844;BME280;51310;52.198;5.422;2023-02-20T14:31:34;101828.53;;;8.44;100.00
64844;BME280;51310;52.198;5.422;2023-02-20T14:34:45;101844.47;;;8.48;100.00
64844;BME280;51310;52.198;5.422;2023-02-20T14:37:39;101835.13;;;8.49;100.00
64844;BME280;51310;52.198;5.422;2023-02-20T14:40:25;101841.19;;;8.49;100.00
64844;BME280;51310;52.198;5.422;2023-02-20T14:43:02;101835.28;;;8.36;100.00
64844;BME280;51310;52.198;5.422;2023-02-20T14:45:28;101840.41;;;8.36;100.00
64844;BME280;51310;52.198;5.422;2023-02-20T14:48:00;101842.38;;;8.24;100.00
64844;BME280;51310;52.198;5.422;2023-02-20T14:50:35;101857.97;;;8.26;100.00
64844;BME280;51310;52.198;5.422;2023-02-20T14:53:18;101851.94;;;8.25;100.00
64844;BME280;51310;52.198;5.422;2023-02-20T14:55:50;101843.31;;;8.25;100.00